sensor_id;sensor_type;location;lat;lon;timestamp;pressure;altitude;pressure_sealevel;temperature;humidity
43745;BME280;29359;53.048;8.732;2023-03-29T00:00:29;101889.63;;;5.49;74.51
43745;BME280;29359;53.048;8.732;2023-03-29T00:02:31;101892.22;;;5.49;74.45
43745;BME280;29359;53.048;8.732;2023-03-29T00:04:34;101883.50;;;5.47;75.36
43745;BME280;29359;53.048;8.732;2023-03-29T00:06:37;101877.34;;;5.45;75.07
43745;BME280;29359;53.048;8.732;2023-03-29T00:08:38;101873.84;;;5.43;75.45
43745;BME280;29359;53.048;8.732;2023-03-29T00:10:40;101881.69;;;5.41;75.35
43745;BME280;29359;53.048;8.732;2023-03-29T00:12:42;101871.19;;;5.40;75.34
43745;BME280;29359;53.048;8.732;2023-03-29T00:14:44;101867.69;;;5.39;74.83
43745;BME280;29359;53.048;8.732;2023-03-29T00:16:45;101865.06;;;5.38;74.77
43745;BME280;29359;53.048;8.732;2023-03-29T00:18:47;101854.59;;;5.36;75.62
43745;BME280;29359;53.048;8.732;2023-03-29T00:20:56;101860.69;;;5.36;75.14
43745;BME280;29359;53.048;8.732;2023-03-29T00:22:57;101857.19;;;5.34;75.23
43745;BME280;29359;53.048;8.732;2023-03-29T00:24:59;101849.31;;;5.31;75.51
43745;BME280;29359;53.048;8.732;2023-03-29T00:27:01;101851.94;;;5.31;75.56
43745;BME280;29359;53.048;8.732;2023-03-29T00:29:02;101846.66;;;5.28;76.20
43745;BME280;29359;53.048;8.732;2023-03-29T00:31:06;101844.91;;;5.29;75.94
43745;BME280;29359;53.048;8.732;2023-03-29T00:33:08;101843.16;;;5.26;76.48
43745;BME280;29359;53.048;8.732;2023-03-29T00:35:10;101834.41;;;5.24;76.33
43745;BME280;29359;53.048;8.732;2023-03-29T00:37:11;101842.25;;;5.23;76.23
43745;BME280;29359;53.048;8.732;2023-03-29T00:39:19;101836.13;;;5.21;76.08
43745;BME280;29359;53.048;8.732;2023-03-29T00:41:21;101836.94;;;5.20;76.26
43745;BME280;29359;53.048;8.732;2023-03-29T00:43:23;101838.69;;;5.19;76.77
43745;BME280;29359;53.048;8.732;2023-03-29T00:45:25;101836.94;;;5.18;76.93
43745;BME280;29359;53.048;8.732;2023-03-29T00:47:42;101835.19;;;5.17;76.42
43745;BME280;29359;53.048;8.732;2023-03-29T00:49:46;101825.56;;;5.16;76.28
43745;BME280;29359;53.048;8.732;2023-03-29T00:51:49;101823.81;;;5.17;76.34
43745;BME280;29359;53.048;8.732;2023-03-29T00:53:57;101826.44;;;5.15;76.69
43745;BME280;29359;53.048;8.732;2023-03-29T00:56:16;101824.66;;;5.13;77.11
43745;BME280;29359;53.048;8.732;2023-03-29T00:58:25;101830.75;;;5.12;76.54
43745;BME280;29359;53.048;8.732;2023-03-29T01:00:36;101825.50;;;5.10;76.76
43745;BME280;29359;53.048;8.732;2023-03-29T01:02:40;101827.22;;;5.08;76.86
43745;BME280;29359;53.048;8.732;2023-03-29T01:04:49;101829.84;;;5.08;77.30
43745;BME280;29359;53.048;8.732;2023-03-29T01:06:55;101830.69;;;5.05;76.99
43745;BME280;29359;53.048;8.732;2023-03-29T01:09:03;101821.13;;;5.06;77.47
43745;BME280;29359;53.048;8.732;2023-03-29T01:11:18;101812.38;;;5.04;77.52
43745;BME280;29359;53.048;8.732;2023-03-29T01:13:29;101814.97;;;5.02;76.62
43745;BME280;29359;53.048;8.732;2023-03-29T01:15:34;101812.34;;;5.01;77.69
43745;BME280;29359;53.048;8.732;2023-03-29T01:17:37;101805.34;;;5.00;76.92
43745;BME280;29359;53.048;8.732;2023-03-29T01:19:52;101808.81;;;4.99;77.10
43745;BME280;29359;53.048;8.732;2023-03-29T01:22:14;101804.44;;;4.96;76.64
43745;BME280;29359;53.048;8.732;2023-03-29T01:24:38;101815.75;;;4.94;76.78
43745;BME280;29359;53.048;8.732;2023-03-29T01:26:51;101807.88;;;4.92;77.74
43745;BME280;29359;53.048;8.732;2023-03-29T01:29:06;101797.41;;;4.91;76.54
43745;BME280;29359;53.048;8.732;2023-03-29T01:31:16;101800.03;;;4.91;76.64
43745;BME280;29359;53.048;8.732;2023-03-29T01:33:23;101798.28;;;4.91;76.79
43745;BME280;29359;53.048;8.732;2023-03-29T01:35:28;101786.06;;;4.89;76.80
43745;BME280;29359;53.048;8.732;2023-03-29T01:37:38;101786.94;;;4.91;76.91
43745;BME280;29359;53.048;8.732;2023-03-29T01:39:41;101785.19;;;4.90;77.66
43745;BME280;29359;53.048;8.732;2023-03-29T01:46:57;101778.13;;;4.81;76.05
43745;BME280;29359;53.048;8.732;2023-03-29T01:49:06;101781.63;;;4.82;75.73
43745;BME280;29359;53.048;8.732;2023-03-29T01:51:16;101769.44;;;4.84;75.57
43745;BME280;29359;53.048;8.732;2023-03-29T01:55:34;101770.28;;;4.83;75.06
43745;BME280;29359;53.048;8.732;2023-03-29T01:57:41;101758.09;;;4.85;76.14
43745;BME280;29359;53.048;8.732;2023-03-29T01:59:45;101755.47;;;4.83;76.13
43745;BME280;29359;53.048;8.732;2023-03-29T02:01:49;101753.72;;;4.82;76.24
43745;BME280;29359;53.048;8.732;2023-03-29T02:03:57;101749.34;;;4.80;75.87
43745;BME280;29359;53.048;8.732;2023-03-29T02:06:01;101746.69;;;4.78;76.69
43745;BME280;29359;53.048;8.732;2023-03-29T02:08:06;101752.75;;;4.76;76.59
43745;BME280;29359;53.048;8.732;2023-03-29T02:10:10;101744.84;;;4.71;76.60
43745;BME280;29359;53.048;8.732;2023-03-29T02:12:14;101740.50;;;4.71;76.12
43745;BME280;29359;53.048;8.732;2023-03-29T02:14:17;101734.38;;;4.69;76.55
43745;BME280;29359;53.048;8.732;2023-03-29T02:16:18;101731.75;;;4.69;76.58
43745;BME280;29359;53.048;8.732;2023-03-29T02:18:21;101734.38;;;4.68;76.45
43745;BME280;29359;53.048;8.732;2023-03-29T02:20:26;101723.88;;;4.65;76.93
43745;BME280;29359;53.048;8.732;2023-03-29T02:22:36;101727.34;;;4.62;76.56
43745;BME280;29359;53.048;8.732;2023-03-29T02:24:43;101730.75;;;4.57;76.76
43745;BME280;29359;53.048;8.732;2023-03-29T02:26:47;101722.00;;;4.53;76.98
43745;BME280;29359;53.048;8.732;2023-03-29T02:28:49;101721.13;;;4.51;77.37
43745;BME280;29359;53.048;8.732;2023-03-29T02:31:01;101721.97;;;4.49;77.66
43745;BME280;29359;53.048;8.732;2023-03-29T02:33:12;101717.59;;;4.49;77.00
43745;BME280;29359;53.048;8.732;2023-03-29T02:35:25;101717.59;;;4.49;77.38
43745;BME280;29359;53.048;8.732;2023-03-29T02:37:30;101711.50;;;4.47;78.04
43745;BME280;29359;53.048;8.732;2023-03-29T02:39:35;101702.78;;;4.48;78.30
43745;BME280;29359;53.048;8.732;2023-03-29T02:41:37;101708.00;;;4.47;78.21
43745;BME280;29359;53.048;8.732;2023-03-29T02:43:41;101701.91;;;4.48;78.17
43745;BME280;29359;53.048;8.732;2023-03-29T02:45:44;101700.19;;;4.50;77.96
43745;BME280;29359;53.048;8.732;2023-03-29T02:47:50;101695.81;;;4.47;78.20
43745;BME280;29359;53.048;8.732;2023-03-29T02:49:53;101694.06;;;4.46;78.64
43745;BME280;29359;53.048;8.732;2023-03-29T02:51:57;101690.56;;;4.47;79.13
43745;BME280;29359;53.048;8.732;2023-03-29T02:54:05;101694.94;;;4.48;79.43
43745;BME280;29359;53.048;8.732;2023-03-29T02:56:09;101687.97;;;4.47;79.53
43745;BME280;29359;53.048;8.732;2023-03-29T02:58:12;101682.72;;;4.46;79.74
43745;BME280;29359;53.048;8.732;2023-03-29T03:00:16;101676.63;;;4.48;79.91
43745;BME280;29359;53.048;8.732;2023-03-29T03:02:19;101685.34;;;4.49;80.75
43745;BME280;29359;53.048;8.732;2023-03-29T03:04:21;101681.88;;;4.50;81.08
43745;BME280;29359;53.048;8.732;2023-03-29T03:06:23;101686.25;;;4.51;81.46
43745;BME280;29359;53.048;8.732;2023-03-29T03:08:24;101674.94;;;4.53;81.85
43745;BME280;29359;53.048;8.732;2023-03-29T03:10:26;101672.31;;;4.53;81.36
43745;BME280;29359;53.048;8.732;2023-03-29T03:12:28;101663.63;;;4.54;82.53
43745;BME280;29359;53.048;8.732;2023-03-29T03:14:29;101666.25;;;4.56;82.35
43745;BME280;29359;53.048;8.732;2023-03-29T03:16:31;101663.66;;;4.59;82.17
43745;BME280;29359;53.048;8.732;2023-03-29T03:18:32;101658.44;;;4.59;82.56
43745;BME280;29359;53.048;8.732;2023-03-29T03:20:34;101657.59;;;4.61;82.74
43745;BME280;29359;53.048;8.732;2023-03-29T03:22:36;101661.97;;;4.64;83.03
43745;BME280;29359;53.048;8.732;2023-03-29T03:24:38;101659.38;;;4.65;83.40
43745;BME280;29359;53.048;8.732;2023-03-29T03:26:39;101650.63;;;4.65;83.90
43745;BME280;29359;53.048;8.732;2023-03-29T03:28:41;101653.28;;;4.66;84.53
43745;BME280;29359;53.048;8.732;2023-03-29T03:30:43;101650.66;;;4.66;84.46
43745;BME280;29359;53.048;8.732;2023-03-29T03:32:45;101640.22;;;4.68;84.51
43745;BME280;29359;53.048;8.732;2023-03-29T03:34:47;101645.44;;;4.69;84.67
43745;BME280;29359;53.048;8.732;2023-03-29T03:36:48;101640.22;;;4.71;85.19
43745;BME280;29359;53.048;8.732;2023-03-29T03:38:51;101638.50;;;4.73;84.68
43745;BME280;29359;53.048;8.732;2023-03-29T03:40:57;101629.78;;;4.74;84.72
43745;BME280;29359;53.048;8.732;2023-03-29T03:42:59;101632.41;;;4.76;84.78
43745;BME280;29359;53.048;8.732;2023-03-29T03:45:01;101633.28;;;4.76;85.37
43745;BME280;29359;53.048;8.732;2023-03-29T03:47:03;101643.81;;;4.79;84.79
43745;BME280;29359;53.048;8.732;2023-03-29T03:49:05;101644.69;;;4.78;85.58
43745;BME280;29359;53.048;8.732;2023-03-29T03:51:07;101641.19;;;4.79;85.65
43745;BME280;29359;53.048;8.732;2023-03-29T03:53:08;101643.81;;;4.79;85.57
43745;BME280;29359;53.048;8.732;2023-03-29T03:55:10;101642.94;;;4.79;85.91
43745;BME280;29359;53.048;8.732;2023-03-29T03:57:12;101640.31;;;4.79;86.52
43745;BME280;29359;53.048;8.732;2023-03-29T03:59:14;101629.84;;;4.79;86.88
43745;BME280;29359;53.048;8.732;2023-03-29T04:01:16;101632.47;;;4.79;86.59
43745;BME280;29359;53.048;8.732;2023-03-29T04:03:18;101629.84;;;4.79;86.27
43745;BME280;29359;53.048;8.732;2023-03-29T04:05:20;101623.75;;;4.80;87.01
43745;BME280;29359;53.048;8.732;2023-03-29T04:07:21;101624.66;;;4.82;86.43
43745;BME280;29359;53.048;8.732;2023-03-29T04:09:25;101618.53;;;4.80;86.41
43745;BME280;29359;53.048;8.732;2023-03-29T04:11:27;101626.41;;;4.81;87.35
43745;BME280;29359;53.048;8.732;2023-03-29T04:13:28;101618.53;;;4.81;87.46
43745;BME280;29359;53.048;8.732;2023-03-29T04:15:32;101618.53;;;4.81;87.04
43745;BME280;29359;53.048;8.732;2023-03-29T04:17:34;101622.03;;;4.80;86.71
43745;BME280;29359;53.048;8.732;2023-03-29T04:19:36;101623.75;;;4.80;86.88
43745;BME280;29359;53.048;8.732;2023-03-29T04:21:37;101618.53;;;4.81;87.43
43745;BME280;29359;53.048;8.732;2023-03-29T04:23:39;101617.66;;;4.81;87.33
43745;BME280;29359;53.048;8.732;2023-03-29T04:25:43;101610.69;;;4.81;87.72
43745;BME280;29359;53.048;8.732;2023-03-29T04:27:44;101615.94;;;4.81;87.65
43745;BME280;29359;53.048;8.732;2023-03-29T04:29:46;101615.94;;;4.83;87.59
43745;BME280;29359;53.048;8.732;2023-03-29T04:31:49;101613.31;;;4.83;87.61
43745;BME280;29359;53.048;8.732;2023-03-29T04:33:50;101615.06;;;4.81;87.98
43745;BME280;29359;53.048;8.732;2023-03-29T04:35:52;101618.53;;;4.80;88.19
43745;BME280;29359;53.048;8.732;2023-03-29T04:37:53;101613.31;;;4.80;88.13
43745;BME280;29359;53.048;8.732;2023-03-29T04:39:55;101608.06;;;4.80;88.29
43745;BME280;29359;53.048;8.732;2023-03-29T04:41:57;101611.56;;;4.80;88.67
43745;BME280;29359;53.048;8.732;2023-03-29T04:43:59;101605.44;;;4.80;88.25
43745;BME280;29359;53.048;8.732;2023-03-29T04:46:02;101604.59;;;4.81;88.40
43745;BME280;29359;53.048;8.732;2023-03-29T04:48:07;101605.47;;;4.81;88.02
43745;BME280;29359;53.048;8.732;2023-03-29T04:50:09;101609.81;;;4.81;88.57
43745;BME280;29359;53.048;8.732;2023-03-29T04:52:11;101610.72;;;4.83;87.74
43745;BME280;29359;53.048;8.732;2023-03-29T04:54:13;101601.97;;;4.82;88.56
43745;BME280;29359;53.048;8.732;2023-03-29T04:56:14;101598.50;;;4.83;88.01
43745;BME280;29359;53.048;8.732;2023-03-29T04:58:17;101604.59;;;4.82;88.05
43745;BME280;29359;53.048;8.732;2023-03-29T05:00:23;101602.84;;;4.83;87.32
43745;BME280;29359;53.048;8.732;2023-03-29T05:02:27;101602.00;;;4.84;88.25
43745;BME280;29359;53.048;8.732;2023-03-29T05:04:32;101602.88;;;4.86;87.75
43745;BME280;29359;53.048;8.732;2023-03-29T05:06:34;101583.69;;;4.85;87.75
43745;BME280;29359;53.048;8.732;2023-03-29T05:08:39;101588.94;;;4.85;88.04
43745;BME280;29359;53.048;8.732;2023-03-29T05:10:41;101588.06;;;4.88;88.31
43745;BME280;29359;53.048;8.732;2023-03-29T05:12:43;101588.94;;;4.87;88.32
43745;BME280;29359;53.048;8.732;2023-03-29T05:14:45;101576.75;;;4.89;87.78
43745;BME280;29359;53.048;8.732;2023-03-29T05:16:46;101574.13;;;4.92;88.26
43745;BME280;29359;53.048;8.732;2023-03-29T05:18:48;101575.00;;;4.92;87.62
43745;BME280;29359;53.048;8.732;2023-03-29T05:20:50;101572.41;;;4.94;87.92
43745;BME280;29359;53.048;8.732;2023-03-29T05:22:53;101574.16;;;4.93;88.15
43745;BME280;29359;53.048;8.732;2023-03-29T05:24:55;101576.75;;;4.93;87.60
43745;BME280;29359;53.048;8.732;2023-03-29T05:26:57;101575.03;;;4.94;87.80
43745;BME280;29359;53.048;8.732;2023-03-29T05:28:59;101571.53;;;4.93;87.49
43745;BME280;29359;53.048;8.732;2023-03-29T05:31:03;101582.00;;;4.93;87.60
43745;BME280;29359;53.048;8.732;2023-03-29T05:33:06;101570.66;;;4.93;87.85
43745;BME280;29359;53.048;8.732;2023-03-29T05:35:08;101575.91;;;4.94;88.11
43745;BME280;29359;53.048;8.732;2023-03-29T05:37:11;101577.66;;;4.98;87.49
43745;BME280;29359;53.048;8.732;2023-03-29T05:39:13;101575.06;;;5.00;87.80
43745;BME280;29359;53.048;8.732;2023-03-29T05:41:15;101566.34;;;5.02;88.06
43745;BME280;29359;53.048;8.732;2023-03-29T05:43:18;101578.56;;;5.03;87.09
43745;BME280;29359;53.048;8.732;2023-03-29T05:45:19;101564.63;;;5.03;87.67
43745;BME280;29359;53.048;8.732;2023-03-29T05:47:23;101572.50;;;5.08;87.27
43745;BME280;29359;53.048;8.732;2023-03-29T05:49:25;101568.13;;;5.08;86.58
43745;BME280;29359;53.048;8.732;2023-03-29T05:51:27;101574.25;;;5.09;86.78
43745;BME280;29359;53.048;8.732;2023-03-29T05:53:28;101579.50;;;5.12;87.43
43745;BME280;29359;53.048;8.732;2023-03-29T05:55:30;101580.38;;;5.14;87.69
43745;BME280;29359;53.048;8.732;2023-03-29T05:57:34;101576.88;;;5.15;87.49
43745;BME280;29359;53.048;8.732;2023-03-29T05:59:36;101577.75;;;5.15;87.46
43745;BME280;29359;53.048;8.732;2023-03-29T06:01:38;101575.16;;;5.17;86.64
43745;BME280;29359;53.048;8.732;2023-03-29T06:03:40;101575.16;;;5.18;87.00
43745;BME280;29359;53.048;8.732;2023-03-29T06:05:42;101578.69;;;5.20;87.59
43745;BME280;29359;53.048;8.732;2023-03-29T06:07:44;101569.13;;;5.24;86.90
43745;BME280;29359;53.048;8.732;2023-03-29T06:09:45;101576.09;;;5.25;86.58
43745;BME280;29359;53.048;8.732;2023-03-29T06:11:47;101569.13;;;5.27;87.65
43745;BME280;29359;53.048;8.732;2023-03-29T06:13:49;101575.25;;;5.30;87.08
43745;BME280;29359;53.048;8.732;2023-03-29T06:15:51;101572.66;;;5.33;87.97
43745;BME280;29359;53.048;8.732;2023-03-29T06:17:52;101564.78;;;5.32;87.48
43745;BME280;29359;53.048;8.732;2023-03-29T06:19:54;101560.44;;;5.32;87.62
43745;BME280;29359;53.048;8.732;2023-03-29T06:21:55;101570.03;;;5.33;87.44
43745;BME280;29359;53.048;8.732;2023-03-29T06:23:57;101561.31;;;5.33;88.01
43745;BME280;29359;53.048;8.732;2023-03-29T06:25:59;101565.69;;;5.34;87.51
43745;BME280;29359;53.048;8.732;2023-03-29T06:28:01;101567.44;;;5.35;87.93
43745;BME280;29359;53.048;8.732;2023-03-29T06:30:03;101561.31;;;5.34;88.33
43745;BME280;29359;53.048;8.732;2023-03-29T06:32:06;101568.31;;;5.39;88.62
43745;BME280;29359;53.048;8.732;2023-03-29T06:34:08;101568.31;;;5.35;88.57
43745;BME280;29359;53.048;8.732;2023-03-29T06:36:09;101557.81;;;5.35;88.76
43745;BME280;29359;53.048;8.732;2023-03-29T06:38:11;101563.06;;;5.39;88.57
43745;BME280;29359;53.048;8.732;2023-03-29T06:40:16;101561.34;;;5.41;87.99
43745;BME280;29359;53.048;8.732;2023-03-29T06:42:27;101567.47;;;5.43;88.03
43745;BME280;29359;53.048;8.732;2023-03-29T06:44:29;101571.81;;;5.44;88.58
43745;BME280;29359;53.048;8.732;2023-03-29T06:46:30;101570.97;;;5.46;88.22
43745;BME280;29359;53.048;8.732;2023-03-29T06:48:32;101573.59;;;5.49;88.24
43745;BME280;29359;53.048;8.732;2023-03-29T06:50:34;101575.34;;;5.52;88.17
43745;BME280;29359;53.048;8.732;2023-03-29T06:52:35;101571.00;;;5.55;87.67
43745;BME280;29359;53.048;8.732;2023-03-29T06:54:37;101577.13;;;5.59;87.85
43745;BME280;29359;53.048;8.732;2023-03-29T06:56:39;101564.91;;;5.59;87.45
43745;BME280;29359;53.048;8.732;2023-03-29T06:58:41;101570.13;;;5.58;87.44
43745;BME280;29359;53.048;8.732;2023-03-29T07:00:42;101564.91;;;5.59;87.36
43745;BME280;29359;53.048;8.732;2023-03-29T07:02:45;101564.91;;;5.61;87.26
43745;BME280;29359;53.048;8.732;2023-03-29T07:04:46;101561.41;;;5.62;87.24
43745;BME280;29359;53.048;8.732;2023-03-29T07:06:49;101560.53;;;5.63;87.61
43745;BME280;29359;53.048;8.732;2023-03-29T07:09:01;101560.59;;;5.64;87.17
43745;BME280;29359;53.048;8.732;2023-03-29T07:11:06;101564.97;;;5.67;86.77
43745;BME280;29359;53.048;8.732;2023-03-29T07:13:10;101559.72;;;5.68;86.46
43745;BME280;29359;53.048;8.732;2023-03-29T07:15:14;101556.25;;;5.71;87.17
43745;BME280;29359;53.048;8.732;2023-03-29T07:17:16;101557.13;;;5.75;86.61
43745;BME280;29359;53.048;8.732;2023-03-29T07:19:18;101563.25;;;5.78;86.53
43745;BME280;29359;53.048;8.732;2023-03-29T07:21:22;101568.50;;;5.83;86.32
43745;BME280;29359;53.048;8.732;2023-03-29T07:23:24;101565.88;;;5.87;86.18
43745;BME280;29359;53.048;8.732;2023-03-29T07:25:26;101562.44;;;5.91;85.84
43745;BME280;29359;53.048;8.732;2023-03-29T07:27:30;101573.81;;;5.96;86.00
43745;BME280;29359;53.048;8.732;2023-03-29T07:29:32;101570.31;;;6.01;85.83
43745;BME280;29359;53.048;8.732;2023-03-29T07:31:35;101562.47;;;6.04;85.25
43745;BME280;29359;53.048;8.732;2023-03-29T07:33:38;101574.72;;;6.08;84.94
43745;BME280;29359;53.048;8.732;2023-03-29T07:35:41;101572.13;;;6.12;85.18
43745;BME280;29359;53.048;8.732;2023-03-29T07:37:44;101571.25;;;6.15;85.56
43745;BME280;29359;53.048;8.732;2023-03-29T07:39:46;101573.00;;;6.17;85.33
43745;BME280;29359;53.048;8.732;2023-03-29T07:41:48;101571.25;;;6.18;84.65
43745;BME280;29359;53.048;8.732;2023-03-29T07:43:49;101573.88;;;6.21;84.61
43745;BME280;29359;53.048;8.732;2023-03-29T07:45:52;101582.63;;;6.23;84.65
43745;BME280;29359;53.048;8.732;2023-03-29T07:47:58;101577.38;;;6.23;84.36
43745;BME280;29359;53.048;8.732;2023-03-29T07:50:00;101589.59;;;6.21;84.43
43745;BME280;29359;53.048;8.732;2023-03-29T07:52:01;101583.50;;;6.23;84.80
43745;BME280;29359;53.048;8.732;2023-03-29T07:54:04;101578.25;;;6.26;84.63
43745;BME280;29359;53.048;8.732;2023-03-29T07:56:07;101573.88;;;6.30;84.05
43745;BME280;29359;53.048;8.732;2023-03-29T07:58:09;101574.75;;;6.30;83.95
43745;BME280;29359;53.048;8.732;2023-03-29T08:00:12;101577.38;;;6.32;83.54
43745;BME280;29359;53.048;8.732;2023-03-29T08:02:17;101564.28;;;6.37;83.65
43745;BME280;29359;53.048;8.732;2023-03-29T08:04:19;101569.50;;;6.41;83.44
43745;BME280;29359;53.048;8.732;2023-03-29T08:06:21;101576.50;;;6.44;83.91
43745;BME280;29359;53.048;8.732;2023-03-29T08:08:23;101572.13;;;6.44;83.10
43745;BME280;29359;53.048;8.732;2023-03-29T08:10:25;101572.13;;;6.47;83.38
43745;BME280;29359;53.048;8.732;2023-03-29T08:12:26;101574.75;;;6.49;83.48
43745;BME280;29359;53.048;8.732;2023-03-29T08:14:28;101575.66;;;6.52;83.82
43745;BME280;29359;53.048;8.732;2023-03-29T08:16:30;101568.66;;;6.57;83.52
43745;BME280;29359;53.048;8.732;2023-03-29T08:18:32;101570.41;;;6.61;83.52
43745;BME280;29359;53.048;8.732;2023-03-29T08:20:35;101566.03;;;6.71;83.56
43745;BME280;29359;53.048;8.732;2023-03-29T08:22:37;101562.53;;;6.78;83.08
43745;BME280;29359;53.048;8.732;2023-03-29T08:24:39;101562.50;;;6.84;82.97
43745;BME280;29359;53.048;8.732;2023-03-29T08:26:40;101563.38;;;6.91;82.75
43745;BME280;29359;53.048;8.732;2023-03-29T08:28:42;101562.53;;;6.97;82.30
43745;BME280;29359;53.048;8.732;2023-03-29T08:30:44;101565.13;;;7.03;82.19
43745;BME280;29359;53.048;8.732;2023-03-29T08:32:46;101561.63;;;7.07;82.19
43745;BME280;29359;53.048;8.732;2023-03-29T08:34:51;101560.75;;;7.09;81.82
43745;BME280;29359;53.048;8.732;2023-03-29T08:36:53;101564.25;;;7.11;82.12
43745;BME280;29359;53.048;8.732;2023-03-29T08:38:55;101569.50;;;7.11;81.60
43745;BME280;29359;53.048;8.732;2023-03-29T08:40:57;101560.75;;;7.09;82.00
43745;BME280;29359;53.048;8.732;2023-03-29T08:45:36;101558.97;;;7.14;82.59
43745;BME280;29359;53.048;8.732;2023-03-29T08:49:59;101554.53;;;7.32;82.26
43745;BME280;29359;53.048;8.732;2023-03-29T08:52:04;101550.16;;;7.38;82.42
43745;BME280;29359;53.048;8.732;2023-03-29T08:54:10;101544.88;;;7.46;82.00
43745;BME280;29359;53.048;8.732;2023-03-29T08:56:18;101547.47;;;7.52;81.81
43745;BME280;29359;53.048;8.732;2023-03-29T08:58:25;101551.88;;;7.51;81.74
43745;BME280;29359;53.048;8.732;2023-03-29T09:00:42;101548.38;;;7.48;81.47
43745;BME280;29359;53.048;8.732;2023-03-29T09:02:44;101547.50;;;7.49;82.58
43745;BME280;29359;53.048;8.732;2023-03-29T09:04:46;101551.00;;;7.51;81.84
43745;BME280;29359;53.048;8.732;2023-03-29T09:06:49;101545.72;;;7.55;82.41
43745;BME280;29359;53.048;8.732;2023-03-29T09:08:51;101549.19;;;7.59;82.26
43745;BME280;29359;53.048;8.732;2023-03-29T09:15:29;101555.25;;;7.73;82.01
43745;BME280;29359;53.048;8.732;2023-03-29T09:17:36;101546.47;;;7.77;81.86
43745;BME280;29359;53.048;8.732;2023-03-29T09:22:18;101543.81;;;7.86;82.37
43745;BME280;29359;53.048;8.732;2023-03-29T09:24:43;101540.28;;;7.92;82.23
43745;BME280;29359;53.048;8.732;2023-03-29T09:26:51;101541.13;;;7.97;82.20
43745;BME280;29359;53.048;8.732;2023-03-29T09:29:04;101540.19;;;8.03;81.74
43745;BME280;29359;53.048;8.732;2023-03-29T09:31:16;101549.84;;;8.02;82.10
43745;BME280;29359;53.048;8.732;2023-03-29T09:33:36;101541.09;;;8.02;82.05
43745;BME280;29359;53.048;8.732;2023-03-29T09:35:50;101537.63;;;7.97;82.36
43745;BME280;29359;53.048;8.732;2023-03-29T09:37:54;101536.72;;;7.99;83.10
43745;BME280;29359;53.048;8.732;2023-03-29T09:39:56;101527.03;;;8.07;83.34
43745;BME280;29359;53.048;8.732;2023-03-29T09:44:09;101529.59;;;8.13;82.98
43745;BME280;29359;53.048;8.732;2023-03-29T09:46:37;101527.88;;;8.09;82.51
43745;BME280;29359;53.048;8.732;2023-03-29T09:48:40;101524.41;;;8.06;83.89
43745;BME280;29359;53.048;8.732;2023-03-29T09:50:49;101534.03;;;8.08;83.44
43745;BME280;29359;53.048;8.732;2023-03-29T09:52:51;101526.16;;;8.05;83.98
43745;BME280;29359;53.048;8.732;2023-03-29T09:54:53;101530.53;;;8.08;84.35
43745;BME280;29359;53.048;8.732;2023-03-29T09:56:54;101527.91;;;8.08;84.65
43745;BME280;29359;53.048;8.732;2023-03-29T09:58:56;101528.78;;;8.08;84.56
43745;BME280;29359;53.048;8.732;2023-03-29T10:00:59;101525.22;;;8.12;84.56
43745;BME280;29359;53.048;8.732;2023-03-29T10:03:02;101526.94;;;8.18;85.00
43745;BME280;29359;53.048;8.732;2023-03-29T10:05:05;101517.28;;;8.22;85.07
43745;BME280;29359;53.048;8.732;2023-03-29T10:07:14;101519.03;;;8.24;85.45
43745;BME280;29359;53.048;8.732;2023-03-29T10:09:22;101518.09;;;8.31;84.58
43745;BME280;29359;53.048;8.732;2023-03-29T10:11:28;101518.09;;;8.33;84.75
43745;BME280;29359;53.048;8.732;2023-03-29T10:13:32;101518.09;;;8.37;85.12
43745;BME280;29359;53.048;8.732;2023-03-29T10:15:35;101521.59;;;8.38;84.75
43745;BME280;29359;53.048;8.732;2023-03-29T10:17:39;101514.53;;;8.41;85.37
43745;BME280;29359;53.048;8.732;2023-03-29T10:19:49;101511.88;;;8.46;85.15
43745;BME280;29359;53.048;8.732;2023-03-29T10:21:52;101507.47;;;8.48;84.83
43745;BME280;29359;53.048;8.732;2023-03-29T10:23:58;101510.06;;;8.49;85.02
43745;BME280;29359;53.048;8.732;2023-03-29T10:26:02;101508.34;;;8.45;85.19
43745;BME280;29359;53.048;8.732;2023-03-29T10:28:15;101508.41;;;8.41;85.97
43745;BME280;29359;53.048;8.732;2023-03-29T10:30:21;101507.56;;;8.37;86.72
43745;BME280;29359;53.048;8.732;2023-03-29T10:32:33;101506.66;;;8.40;87.27
43745;BME280;29359;53.048;8.732;2023-03-29T10:34:35;101507.50;;;8.43;87.99
43745;BME280;29359;53.048;8.732;2023-03-29T10:36:39;101494.31;;;8.46;88.05
43745;BME280;29359;53.048;8.732;2023-03-29T10:38:42;101489.09;;;8.42;88.55
43745;BME280;29359;53.048;8.732;2023-03-29T10:40:46;101488.25;;;8.40;90.27
43745;BME280;29359;53.048;8.732;2023-03-29T10:42:49;101482.13;;;8.36;90.17
43745;BME280;29359;53.048;8.732;2023-03-29T10:44:55;101486.53;;;8.36;90.09
43745;BME280;29359;53.048;8.732;2023-03-29T10:47:17;101491.75;;;8.40;90.76
43745;BME280;29359;53.048;8.732;2023-03-29T10:49:21;101496.94;;;8.46;90.66
43745;BME280;29359;53.048;8.732;2023-03-29T10:51:25;101486.44;;;8.45;90.28
43745;BME280;29359;53.048;8.732;2023-03-29T10:53:30;101485.50;;;8.50;90.33
43745;BME280;29359;53.048;8.732;2023-03-29T10:55:37;101482.78;;;8.60;90.26
43745;BME280;29359;53.048;8.732;2023-03-29T10:58:05;101489.66;;;8.76;89.90
43745;BME280;29359;53.048;8.732;2023-03-29T11:00:25;101493.81;;;8.97;89.42
43745;BME280;29359;53.048;8.732;2023-03-29T11:02:55;101492.81;;;9.07;88.10
43745;BME280;29359;53.048;8.732;2023-03-29T11:12:46;101485.22;;;9.53;84.90
43745;BME280;29359;53.048;8.732;2023-03-29T11:15:43;101484.38;;;9.54;83.56
43745;BME280;29359;53.048;8.732;2023-03-29T11:20:03;101480.63;;;9.70;83.62
43745;BME280;29359;53.048;8.732;2023-03-29T11:22:27;101474.44;;;9.71;83.41
43745;BME280;29359;53.048;8.732;2023-03-29T11:25:02;101475.28;;;9.75;83.29
43745;BME280;29359;53.048;8.732;2023-03-29T11:27:21;101482.19;;;9.84;84.00
43745;BME280;29359;53.048;8.732;2023-03-29T11:29:40;101474.06;;;9.96;83.80
43745;BME280;29359;53.048;8.732;2023-03-29T11:32:20;101471.28;;;10.08;83.18